Latest Conditions
At L.F.Wade Int. Airport
Recorded at 2:55 pm
Showers
Temp.: 
25°C/76°F
Humidity: 
71%
Wind: 
SSW 3KT
or 3mph
Island Observations
Observations
Saturday, October 25, 2014

Observations are in local time and taken at least once an hour, or upon the start and end of specified events such as showers and thunderstorms.

Time Sky / Weather Wind Speed/Gusts Temp. R.H. Pressure
     knots (mph)  °C (°F)  %  mb / "Hg
 14:55 Overcast Showers SSW 3/0 (3/0) 25(76) 71 1010 / 29.84
 13:55 Overcast  SSW 4/0 (5/0) 25(77) 69 1011 / 29.86
 12:55 Overcast  W 4/0 (5/0) 25(77) 69 1012 / 29.87
 11:55 Overcast  W 6/0 (7/0) 25(77) 70 1012 / 29.88
 10:55 Overcast  WSW 6/0 (7/0) 25(77) 68 1012 / 29.89
 09:55 Overcast  SW 6/0 (7/0) 24(74) 72 1013 / 29.90
 08:55 Overcast  SW 5/0 (6/0) 23(73) 75 1012 / 29.89
 07:55 Overcast  SW 5/0 (6/0) 23(73) 76 1012 / 29.88
 06:55 Mostly Cloudy  WSW 8/0 (9/0) 23(73) 71 1012 / 29.87
 06:24 Mostly Cloudy Showers SW 5/0 (6/0) 23(73) 71 1012 / 29.87
 05:55 Mostly Cloudy Showers SW 5/0 (6/0) 23(73) 71 1012 / 29.87
 04:55 Mostly Cloudy  SW 8/0 (9/0) 23(73) 71 1012 / 29.87
 03:55 Mostly Cloudy  WSW 10/0 (12/0) 23(73) 70 1012 / 29.87
 02:55 Partly Cloudy  WSW 12/0 (14/0) 23(73) 69 1012 / 29.89
 01:55 Partly Cloudy  SW 9/0 (10/0) 23(73) 65 1012 / 29.89
 00:55 Partly Cloudy  SW 7/0 (8/0) 23(73) 65 1013 / 29.90
 23:55 Partly Cloudy  SW 7/0 (8/0) 23(73) 65 1013 / 29.91
 22:55 Partly Cloudy  SW 7/0 (8/0) 23(73) 65 1013 / 29.91
 21:55 Partly Cloudy  SW 7/0 (8/0) 23(73) 65 1013 / 29.90
 20:55 Partly Cloudy  SW 10/0 (12/0) 23(74) 61 1013 / 29.91
 19:55 Partly Cloudy  WSW 11/0 (13/0) 23(74) 62 1012 / 29.89
 18:55 Partly Cloudy  WSW 15/0 (17/0) 23(74) 64 1012 / 29.89
 17:55 Partly Cloudy  WSW 15/0 (17/0) 25(76) 59 1012 / 29.87
 16:55 Partly Cloudy  WSW 16/0 (18/0) 26(78) 55 1012 / 29.87
Observations from our AWOS sites are available here (password and username are both 'guest').